sensor_id;sensor_type;location;lat;lon;timestamp;temperature;humidity
74416;SHT31;62850;42.428;25.618;2023-11-19T00:01:40;5.92;64.79
74416;SHT31;62850;42.428;25.618;2023-11-19T00:04:05;5.92;64.46
74416;SHT31;62850;42.428;25.618;2023-11-19T00:06:31;5.87;64.49
74416;SHT31;62850;42.428;25.618;2023-11-19T00:08:56;5.88;65.31
74416;SHT31;62850;42.428;25.618;2023-11-19T00:11:22;5.88;65.37
74416;SHT31;62850;42.428;25.618;2023-11-19T00:13:47;5.88;65.71
74416;SHT31;62850;42.428;25.618;2023-11-19T00:16:13;5.81;65.97
74416;SHT31;62850;42.428;25.618;2023-11-19T00:18:38;5.74;65.93
74416;SHT31;62850;42.428;25.618;2023-11-19T00:21:04;5.67;66.42
74416;SHT31;62850;42.428;25.618;2023-11-19T00:23:30;5.62;66.07
74416;SHT31;62850;42.428;25.618;2023-11-19T00:25:56;5.60;66.32
74416;SHT31;62850;42.428;25.618;2023-11-19T00:28:21;5.65;65.49
74416;SHT31;62850;42.428;25.618;2023-11-19T00:30:47;5.67;65.36
74416;SHT31;62850;42.428;25.618;2023-11-19T00:33:12;5.64;65.64
74416;SHT31;62850;42.428;25.618;2023-11-19T00:35:38;5.68;64.95
74416;SHT31;62850;42.428;25.618;2023-11-19T00:38:03;5.67;64.95
74416;SHT31;62850;42.428;25.618;2023-11-19T00:40:29;5.74;64.98
74416;SHT31;62850;42.428;25.618;2023-11-19T00:42:54;5.72;64.92
74416;SHT31;62850;42.428;25.618;2023-11-19T00:45:20;5.75;65.19
74416;SHT31;62850;42.428;25.618;2023-11-19T00:47:45;5.79;64.95
74416;SHT31;62850;42.428;25.618;2023-11-19T00:50:11;5.88;64.76
74416;SHT31;62850;42.428;25.618;2023-11-19T00:52:38;5.88;64.92
74416;SHT31;62850;42.428;25.618;2023-11-19T00:55:04;5.79;64.94
74416;SHT31;62850;42.428;25.618;2023-11-19T00:57:30;5.81;65.10
74416;SHT31;62850;42.428;25.618;2023-11-19T01:00:01;5.79;64.93
74416;SHT31;62850;42.428;25.618;2023-11-19T01:02:31;5.94;64.81
74416;SHT31;62850;42.428;25.618;2023-11-19T01:04:57;5.94;64.80
74416;SHT31;62850;42.428;25.618;2023-11-19T01:07:22;5.98;64.57
74416;SHT31;62850;42.428;25.618;2023-11-19T01:09:49;5.90;64.42
74416;SHT31;62850;42.428;25.618;2023-11-19T01:12:15;5.99;64.04
74416;SHT31;62850;42.428;25.618;2023-11-19T01:14:40;6.06;63.52
74416;SHT31;62850;42.428;25.618;2023-11-19T01:17:06;6.06;63.41
74416;SHT31;62850;42.428;25.618;2023-11-19T01:19:31;6.05;63.31
74416;SHT31;62850;42.428;25.618;2023-11-19T01:21:57;6.09;63.13
74416;SHT31;62850;42.428;25.618;2023-11-19T01:24:23;6.18;62.73
74416;SHT31;62850;42.428;25.618;2023-11-19T01:26:48;6.21;62.55
74416;SHT31;62850;42.428;25.618;2023-11-19T01:29:14;6.19;62.48
74416;SHT31;62850;42.428;25.618;2023-11-19T01:31:45;6.23;62.23
74416;SHT31;62850;42.428;25.618;2023-11-19T01:34:11;6.22;62.34
74416;SHT31;62850;42.428;25.618;2023-11-19T01:36:37;6.26;62.19
74416;SHT31;62850;42.428;25.618;2023-11-19T01:39:02;6.25;62.22
74416;SHT31;62850;42.428;25.618;2023-11-19T01:41:34;6.22;62.41
74416;SHT31;62850;42.428;25.618;2023-11-19T01:44:00;6.26;62.26
74416;SHT31;62850;42.428;25.618;2023-11-19T01:46:25;6.29;62.07
74416;SHT31;62850;42.428;25.618;2023-11-19T01:48:52;6.28;62.11
74416;SHT31;62850;42.428;25.618;2023-11-19T01:51:19;6.30;61.95
74416;SHT31;62850;42.428;25.618;2023-11-19T01:53:46;6.28;61.91
74416;SHT31;62850;42.428;25.618;2023-11-19T01:56:13;6.34;61.74
74416;SHT31;62850;42.428;25.618;2023-11-19T01:58:40;6.29;62.03
74416;SHT31;62850;42.428;25.618;2023-11-19T02:01:07;6.28;61.96
74416;SHT31;62850;42.428;25.618;2023-11-19T02:03:33;6.29;61.39
74416;SHT31;62850;42.428;25.618;2023-11-19T02:05:59;6.29;60.86
74416;SHT31;62850;42.428;25.618;2023-11-19T02:08:25;6.36;60.14
74416;SHT31;62850;42.428;25.618;2023-11-19T02:10:51;6.37;60.05
74416;SHT31;62850;42.428;25.618;2023-11-19T02:13:20;6.40;59.80
74416;SHT31;62850;42.428;25.618;2023-11-19T02:15:45;6.44;59.34
74416;SHT31;62850;42.428;25.618;2023-11-19T02:18:25;6.44;58.91
74416;SHT31;62850;42.428;25.618;2023-11-19T02:20:53;6.47;58.81
74416;SHT31;62850;42.428;25.618;2023-11-19T02:23:20;6.46;58.61
74416;SHT31;62850;42.428;25.618;2023-11-19T02:28:35;6.57;58.06
74416;SHT31;62850;42.428;25.618;2023-11-19T02:31:01;6.54;58.17
74416;SHT31;62850;42.428;25.618;2023-11-19T02:33:27;6.56;58.15
74416;SHT31;62850;42.428;25.618;2023-11-19T02:35:52;6.56;58.17
74416;SHT31;62850;42.428;25.618;2023-11-19T02:38:18;6.63;57.76
74416;SHT31;62850;42.428;25.618;2023-11-19T02:40:43;6.63;57.74
74416;SHT31;62850;42.428;25.618;2023-11-19T02:43:09;6.66;57.46
74416;SHT31;62850;42.428;25.618;2023-11-19T02:45:34;6.67;57.25
74416;SHT31;62850;42.428;25.618;2023-11-19T02:48:01;6.66;57.28
74416;SHT31;62850;42.428;25.618;2023-11-19T02:50:27;6.66;57.34
74416;SHT31;62850;42.428;25.618;2023-11-19T02:52:54;6.64;57.38
74416;SHT31;62850;42.428;25.618;2023-11-19T02:55:21;6.66;57.57
74416;SHT31;62850;42.428;25.618;2023-11-19T02:57:49;6.61;57.47
74416;SHT31;62850;42.428;25.618;2023-11-19T03:00:19;6.66;57.09
74416;SHT31;62850;42.428;25.618;2023-11-19T03:02:49;6.74;56.66
74416;SHT31;62850;42.428;25.618;2023-11-19T03:05:24;6.69;56.93
74416;SHT31;62850;42.428;25.618;2023-11-19T03:07:50;6.67;56.88
74416;SHT31;62850;42.428;25.618;2023-11-19T03:10:15;6.67;56.91
74416;SHT31;62850;42.428;25.618;2023-11-19T03:12:41;6.64;57.02
74416;SHT31;62850;42.428;25.618;2023-11-19T03:15:08;6.71;56.59
74416;SHT31;62850;42.428;25.618;2023-11-19T03:17:44;6.63;56.92
74416;SHT31;62850;42.428;25.618;2023-11-19T03:20:11;6.61;57.00
74416;SHT31;62850;42.428;25.618;2023-11-19T03:22:43;6.61;56.59
74416;SHT31;62850;42.428;25.618;2023-11-19T03:25:09;6.58;56.78
74416;SHT31;62850;42.428;25.618;2023-11-19T03:27:39;6.58;56.78
74416;SHT31;62850;42.428;25.618;2023-11-19T03:30:07;6.58;56.96
74416;SHT31;62850;42.428;25.618;2023-11-19T03:32:35;6.54;56.90
74416;SHT31;62850;42.428;25.618;2023-11-19T03:35:03;6.56;56.85
74416;SHT31;62850;42.428;25.618;2023-11-19T03:37:34;6.56;56.92
74416;SHT31;62850;42.428;25.618;2023-11-19T03:39:59;6.57;56.79
74416;SHT31;62850;42.428;25.618;2023-11-19T03:42:28;6.61;56.89
74416;SHT31;62850;42.428;25.618;2023-11-19T03:44:56;6.58;56.79
74416;SHT31;62850;42.428;25.618;2023-11-19T03:47:22;6.57;56.74
74416;SHT31;62850;42.428;25.618;2023-11-19T03:49:51;6.51;57.03
74416;SHT31;62850;42.428;25.618;2023-11-19T03:52:18;6.57;56.86
74416;SHT31;62850;42.428;25.618;2023-11-19T03:54:44;6.51;56.92
74416;SHT31;62850;42.428;25.618;2023-11-19T03:57:11;6.44;57.22
74416;SHT31;62850;42.428;25.618;2023-11-19T03:59:37;6.43;57.26
74416;SHT31;62850;42.428;25.618;2023-11-19T04:02:02;6.42;57.31
74416;SHT31;62850;42.428;25.618;2023-11-19T04:04:28;6.44;57.36
74416;SHT31;62850;42.428;25.618;2023-11-19T04:06:57;6.46;57.28
74416;SHT31;62850;42.428;25.618;2023-11-19T04:09:23;6.44;57.37
74416;SHT31;62850;42.428;25.618;2023-11-19T04:11:48;6.39;57.35
74416;SHT31;62850;42.428;25.618;2023-11-19T04:14:14;6.39;57.34
74416;SHT31;62850;42.428;25.618;2023-11-19T04:16:40;6.36;57.19
74416;SHT31;62850;42.428;25.618;2023-11-19T04:19:06;6.43;56.96
74416;SHT31;62850;42.428;25.618;2023-11-19T04:21:32;6.43;57.15
74416;SHT31;62850;42.428;25.618;2023-11-19T04:23:58;6.46;56.91
74416;SHT31;62850;42.428;25.618;2023-11-19T04:26:23;6.42;57.04
74416;SHT31;62850;42.428;25.618;2023-11-19T04:28:49;6.43;57.17
74416;SHT31;62850;42.428;25.618;2023-11-19T04:31:17;6.39;57.10
74416;SHT31;62850;42.428;25.618;2023-11-19T04:33:43;6.46;56.95
74416;SHT31;62850;42.428;25.618;2023-11-19T04:36:10;6.43;57.02
74416;SHT31;62850;42.428;25.618;2023-11-19T04:38:35;6.51;56.83
74416;SHT31;62850;42.428;25.618;2023-11-19T04:41:02;6.49;56.97
74416;SHT31;62850;42.428;25.618;2023-11-19T04:43:31;6.53;57.01
74416;SHT31;62850;42.428;25.618;2023-11-19T04:45:56;6.50;57.13
74416;SHT31;62850;42.428;25.618;2023-11-19T04:48:22;6.47;57.12
74416;SHT31;62850;42.428;25.618;2023-11-19T04:50:47;6.37;57.40
74416;SHT31;62850;42.428;25.618;2023-11-19T04:53:12;6.42;57.37
74416;SHT31;62850;42.428;25.618;2023-11-19T04:55:39;6.49;57.18
74416;SHT31;62850;42.428;25.618;2023-11-19T04:58:05;6.43;57.45
74416;SHT31;62850;42.428;25.618;2023-11-19T05:00:30;6.40;57.54
74416;SHT31;62850;42.428;25.618;2023-11-19T05:02:55;6.39;57.82
74416;SHT31;62850;42.428;25.618;2023-11-19T05:05:21;6.37;58.03
74416;SHT31;62850;42.428;25.618;2023-11-19T05:07:46;6.36;58.20
74416;SHT31;62850;42.428;25.618;2023-11-19T05:10:12;6.28;58.36
74416;SHT31;62850;42.428;25.618;2023-11-19T05:12:37;6.21;58.37
74416;SHT31;62850;42.428;25.618;2023-11-19T05:15:04;6.22;58.47
74416;SHT31;62850;42.428;25.618;2023-11-19T05:17:30;6.22;58.47
74416;SHT31;62850;42.428;25.618;2023-11-19T05:19:55;6.22;58.47
74416;SHT31;62850;42.428;25.618;2023-11-19T05:22:21;6.22;58.21
74416;SHT31;62850;42.428;25.618;2023-11-19T05:24:47;6.29;58.13
74416;SHT31;62850;42.428;25.618;2023-11-19T05:27:13;6.32;58.23
74416;SHT31;62850;42.428;25.618;2023-11-19T05:29:39;6.25;58.40
74416;SHT31;62850;42.428;25.618;2023-11-19T05:32:06;6.21;58.55
74416;SHT31;62850;42.428;25.618;2023-11-19T05:34:32;6.29;58.39
74416;SHT31;62850;42.428;25.618;2023-11-19T05:36:57;6.23;58.35
74416;SHT31;62850;42.428;25.618;2023-11-19T05:39:23;6.29;58.33
74416;SHT31;62850;42.428;25.618;2023-11-19T05:41:49;6.23;58.22
74416;SHT31;62850;42.428;25.618;2023-11-19T05:44:15;6.22;58.12
74416;SHT31;62850;42.428;25.618;2023-11-19T05:46:40;6.22;58.05
74416;SHT31;62850;42.428;25.618;2023-11-19T05:49:08;6.26;58.30
74416;SHT31;62850;42.428;25.618;2023-11-19T05:51:38;6.22;57.95
74416;SHT31;62850;42.428;25.618;2023-11-19T05:54:08;6.22;58.18
74416;SHT31;62850;42.428;25.618;2023-11-19T05:56:33;6.16;58.44
74416;SHT31;62850;42.428;25.618;2023-11-19T05:58:59;6.18;58.49
74416;SHT31;62850;42.428;25.618;2023-11-19T06:01:39;6.15;58.27
74416;SHT31;62850;42.428;25.618;2023-11-19T06:04:07;6.09;58.42
74416;SHT31;62850;42.428;25.618;2023-11-19T06:06:33;6.13;58.48
74416;SHT31;62850;42.428;25.618;2023-11-19T06:08:58;6.15;58.42
74416;SHT31;62850;42.428;25.618;2023-11-19T06:11:24;6.18;58.14
74416;SHT31;62850;42.428;25.618;2023-11-19T06:13:52;6.18;57.94
74416;SHT31;62850;42.428;25.618;2023-11-19T06:16:18;6.18;58.15
74416;SHT31;62850;42.428;25.618;2023-11-19T06:18:44;6.15;57.78
74416;SHT31;62850;42.428;25.618;2023-11-19T06:21:10;6.22;57.69
74416;SHT31;62850;42.428;25.618;2023-11-19T06:23:35;6.26;57.45
74416;SHT31;62850;42.428;25.618;2023-11-19T06:26:01;6.25;57.40
74416;SHT31;62850;42.428;25.618;2023-11-19T06:28:26;6.19;57.51
74416;SHT31;62850;42.428;25.618;2023-11-19T06:30:52;6.18;57.57
74416;SHT31;62850;42.428;25.618;2023-11-19T06:33:18;6.19;57.42
74416;SHT31;62850;42.428;25.618;2023-11-19T06:35:43;6.23;57.28
74416;SHT31;62850;42.428;25.618;2023-11-19T06:38:10;6.21;57.20
74416;SHT31;62850;42.428;25.618;2023-11-19T06:40:35;6.22;56.91
74416;SHT31;62850;42.428;25.618;2023-11-19T06:43:01;6.26;57.06
74416;SHT31;62850;42.428;25.618;2023-11-19T06:45:28;6.28;56.86
74416;SHT31;62850;42.428;25.618;2023-11-19T06:47:55;6.29;56.98
74416;SHT31;62850;42.428;25.618;2023-11-19T06:50:21;6.28;56.95
74416;SHT31;62850;42.428;25.618;2023-11-19T06:52:47;6.32;56.85
74416;SHT31;62850;42.428;25.618;2023-11-19T06:55:13;6.32;56.94
74416;SHT31;62850;42.428;25.618;2023-11-19T06:57:38;6.34;56.53
74416;SHT31;62850;42.428;25.618;2023-11-19T07:00:05;6.34;56.40
74416;SHT31;62850;42.428;25.618;2023-11-19T07:02:31;6.32;56.89
74416;SHT31;62850;42.428;25.618;2023-11-19T07:04:56;6.36;56.60
74416;SHT31;62850;42.428;25.618;2023-11-19T07:07:22;6.42;56.53
74416;SHT31;62850;42.428;25.618;2023-11-19T07:09:48;6.39;56.79
74416;SHT31;62850;42.428;25.618;2023-11-19T07:12:13;6.34;56.47
74416;SHT31;62850;42.428;25.618;2023-11-19T07:14:39;6.34;56.63
74416;SHT31;62850;42.428;25.618;2023-11-19T07:17:05;6.37;56.52
74416;SHT31;62850;42.428;25.618;2023-11-19T07:19:31;6.40;56.36
74416;SHT31;62850;42.428;25.618;2023-11-19T07:21:57;6.44;56.48
74416;SHT31;62850;42.428;25.618;2023-11-19T07:24:22;6.47;56.24
74416;SHT31;62850;42.428;25.618;2023-11-19T07:26:47;6.56;56.01
74416;SHT31;62850;42.428;25.618;2023-11-19T07:29:14;6.69;55.73
74416;SHT31;62850;42.428;25.618;2023-11-19T07:31:44;6.84;55.03
74416;SHT31;62850;42.428;25.618;2023-11-19T07:34:10;6.97;54.53
74416;SHT31;62850;42.428;25.618;2023-11-19T07:36:37;7.04;54.52
74416;SHT31;62850;42.428;25.618;2023-11-19T07:39:04;7.09;54.06
74416;SHT31;62850;42.428;25.618;2023-11-19T07:41:30;7.12;53.82
74416;SHT31;62850;42.428;25.618;2023-11-19T07:43:56;7.16;53.72
74416;SHT31;62850;42.428;25.618;2023-11-19T07:46:22;7.15;53.77
74416;SHT31;62850;42.428;25.618;2023-11-19T07:48:47;7.25;53.82
74416;SHT31;62850;42.428;25.618;2023-11-19T07:51:13;7.29;53.78
74416;SHT31;62850;42.428;25.618;2023-11-19T07:53:40;7.26;53.63
74416;SHT31;62850;42.428;25.618;2023-11-19T07:56:07;7.29;53.78
74416;SHT31;62850;42.428;25.618;2023-11-19T07:58:33;7.38;53.23
74416;SHT31;62850;42.428;25.618;2023-11-19T08:00:58;7.42;53.12
74416;SHT31;62850;42.428;25.618;2023-11-19T08:03:24;7.49;53.34
74416;SHT31;62850;42.428;25.618;2023-11-19T08:05:49;7.58;53.07
74416;SHT31;62850;42.428;25.618;2023-11-19T08:08:16;7.63;52.75
74416;SHT31;62850;42.428;25.618;2023-11-19T08:10:42;7.69;52.47
74416;SHT31;62850;42.428;25.618;2023-11-19T08:13:09;7.77;52.52
74416;SHT31;62850;42.428;25.618;2023-11-19T08:15:34;7.81;52.30
74416;SHT31;62850;42.428;25.618;2023-11-19T08:17:59;7.89;51.81
74416;SHT31;62850;42.428;25.618;2023-11-19T08:20:25;7.89;52.02
74416;SHT31;62850;42.428;25.618;2023-11-19T08:22:50;7.93;51.65
74416;SHT31;62850;42.428;25.618;2023-11-19T08:25:16;8.02;51.17
74416;SHT31;62850;42.428;25.618;2023-11-19T08:27:41;8.05;51.38
74416;SHT31;62850;42.428;25.618;2023-11-19T08:30:08;8.11;51.06
74416;SHT31;62850;42.428;25.618;2023-11-19T08:32:34;8.17;50.68
74416;SHT31;62850;42.428;25.618;2023-11-19T08:34:59;8.28;50.51
74416;SHT31;62850;42.428;25.618;2023-11-19T08:37:25;8.20;50.74
74416;SHT31;62850;42.428;25.618;2023-11-19T08:39:50;8.28;51.08
74416;SHT31;62850;42.428;25.618;2023-11-19T08:42:17;8.41;50.97
74416;SHT31;62850;42.428;25.618;2023-11-19T08:44:43;8.34;50.54
74416;SHT31;62850;42.428;25.618;2023-11-19T08:47:09;8.41;50.40
74416;SHT31;62850;42.428;25.618;2023-11-19T08:49:36;8.42;50.64
74416;SHT31;62850;42.428;25.618;2023-11-19T08:52:01;8.46;50.11
74416;SHT31;62850;42.428;25.618;2023-11-19T08:54:27;8.49;49.89
74416;SHT31;62850;42.428;25.618;2023-11-19T08:56:52;8.44;49.68
74416;SHT31;62850;42.428;25.618;2023-11-19T08:59:18;8.42;49.56
74416;SHT31;62850;42.428;25.618;2023-11-19T09:01:44;8.44;49.56
74416;SHT31;62850;42.428;25.618;2023-11-19T09:04:10;8.37;49.43
74416;SHT31;62850;42.428;25.618;2023-11-19T09:06:36;8.49;49.69
74416;SHT31;62850;42.428;25.618;2023-11-19T09:09:02;8.52;49.45
74416;SHT31;62850;42.428;25.618;2023-11-19T09:11:31;8.46;49.43
74416;SHT31;62850;42.428;25.618;2023-11-19T09:13:57;8.49;49.54
74416;SHT31;62850;42.428;25.618;2023-11-19T09:16:22;8.45;49.73
74416;SHT31;62850;42.428;25.618;2023-11-19T09:18:48;8.48;49.87
74416;SHT31;62850;42.428;25.618;2023-11-19T09:21:13;8.58;49.72
74416;SHT31;62850;42.428;25.618;2023-11-19T09:23:39;8.60;49.71
74416;SHT31;62850;42.428;25.618;2023-11-19T09:26:05;8.60;50.02
74416;SHT31;62850;42.428;25.618;2023-11-19T09:28:31;8.60;49.27
74416;SHT31;62850;42.428;25.618;2023-11-19T09:30:57;8.63;49.49
74416;SHT31;62850;42.428;25.618;2023-11-19T09:33:24;8.58;49.48
74416;SHT31;62850;42.428;25.618;2023-11-19T09:35:49;8.49;49.90
74416;SHT31;62850;42.428;25.618;2023-11-19T09:38:16;8.48;49.10
74416;SHT31;62850;42.428;25.618;2023-11-19T09:40:42;8.49;49.79
74416;SHT31;62850;42.428;25.618;2023-11-19T09:43:07;8.52;49.28
74416;SHT31;62850;42.428;25.618;2023-11-19T09:45:48;8.55;49.72
74416;SHT31;62850;42.428;25.618;2023-11-19T09:48:18;8.69;49.44
74416;SHT31;62850;42.428;25.618;2023-11-19T09:50:45;8.75;49.36
74416;SHT31;62850;42.428;25.618;2023-11-19T09:53:12;8.76;49.41
74416;SHT31;62850;42.428;25.618;2023-11-19T09:55:37;8.66;49.44
74416;SHT31;62850;42.428;25.618;2023-11-19T09:58:03;8.72;49.61
74416;SHT31;62850;42.428;25.618;2023-11-19T10:00:30;8.75;49.67
74416;SHT31;62850;42.428;25.618;2023-11-19T10:02:56;8.75;49.62
74416;SHT31;62850;42.428;25.618;2023-11-19T10:05:23;8.87;49.34
74416;SHT31;62850;42.428;25.618;2023-11-19T10:07:49;8.96;48.74
74416;SHT31;62850;42.428;25.618;2023-11-19T10:10:15;8.99;48.27
74416;SHT31;62850;42.428;25.618;2023-11-19T10:12:45;9.01;47.88
74416;SHT31;62850;42.428;25.618;2023-11-19T10:15:21;9.06;47.80
74416;SHT31;62850;42.428;25.618;2023-11-19T10:17:56;9.07;47.82
74416;SHT31;62850;42.428;25.618;2023-11-19T10:20:22;9.11;47.49
74416;SHT31;62850;42.428;25.618;2023-11-19T10:22:48;9.20;47.15
74416;SHT31;62850;42.428;25.618;2023-11-19T10:25:29;9.19;47.01
74416;SHT31;62850;42.428;25.618;2023-11-19T10:27:56;9.20;47.57
74416;SHT31;62850;42.428;25.618;2023-11-19T10:30:24;9.37;47.08
74416;SHT31;62850;42.428;25.618;2023-11-19T10:33:13;9.30;46.77
74416;SHT31;62850;42.428;25.618;2023-11-19T10:35:55;9.04;47.29
74416;SHT31;62850;42.428;25.618;2023-11-19T10:38:25;9.03;47.81
74416;SHT31;62850;42.428;25.618;2023-11-19T10:40:52;9.07;47.96
74416;SHT31;62850;42.428;25.618;2023-11-19T10:43:18;9.13;48.22
74416;SHT31;62850;42.428;25.618;2023-11-19T10:45:44;9.30;48.98
74416;SHT31;62850;42.428;25.618;2023-11-19T10:48:10;9.32;46.43
74416;SHT31;62850;42.428;25.618;2023-11-19T10:50:38;9.40;46.85
74416;SHT31;62850;42.428;25.618;2023-11-19T10:53:05;9.34;46.37
74416;SHT31;62850;42.428;25.618;2023-11-19T10:55:32;9.40;46.50
74416;SHT31;62850;42.428;25.618;2023-11-19T10:58:01;9.44;46.17
74416;SHT31;62850;42.428;25.618;2023-11-19T11:00:29;9.45;46.22
74416;SHT31;62850;42.428;25.618;2023-11-19T11:03:02;9.47;45.59
74416;SHT31;62850;42.428;25.618;2023-11-19T11:05:34;9.41;45.71
74416;SHT31;62850;42.428;25.618;2023-11-19T11:08:00;9.40;46.04
74416;SHT31;62850;42.428;25.618;2023-11-19T11:10:28;9.48;45.82
74416;SHT31;62850;42.428;25.618;2023-11-19T11:12:55;9.55;45.83
74416;SHT31;62850;42.428;25.618;2023-11-19T11:15:27;9.54;45.90
74416;SHT31;62850;42.428;25.618;2023-11-19T11:17:59;9.58;45.38
74416;SHT31;62850;42.428;25.618;2023-11-19T11:20:25;9.55;45.40
74416;SHT31;62850;42.428;25.618;2023-11-19T11:28:33;9.55;45.20
74416;SHT31;62850;42.428;25.618;2023-11-19T11:31:29;9.59;44.04
74416;SHT31;62850;42.428;25.618;2023-11-19T11:39:41;9.48;45.24
74416;SHT31;62850;42.428;25.618;2023-11-19T11:45:09;9.57;45.20
74416;SHT31;62850;42.428;25.618;2023-11-19T11:50:12;9.51;45.47
74416;SHT31;62850;42.428;25.618;2023-11-19T11:55:28;9.49;45.70
74416;SHT31;62850;42.428;25.618;2023-11-19T11:57:57;9.59;45.52
74416;SHT31;62850;42.428;25.618;2023-11-19T12:02:49;9.75;44.99
74416;SHT31;62850;42.428;25.618;2023-11-19T12:05:15;9.86;44.94
74416;SHT31;62850;42.428;25.618;2023-11-19T12:07:40;9.90;44.75
74416;SHT31;62850;42.428;25.618;2023-11-19T12:10:08;9.90;44.64
74416;SHT31;62850;42.428;25.618;2023-11-19T12:12:34;9.85;44.38
74416;SHT31;62850;42.428;25.618;2023-11-19T12:15:08;9.88;43.88
74416;SHT31;62850;42.428;25.618;2023-11-19T12:17:42;9.88;44.12
74416;SHT31;62850;42.428;25.618;2023-11-19T12:20:11;9.86;44.12
74416;SHT31;62850;42.428;25.618;2023-11-19T12:22:41;9.96;43.91
74416;SHT31;62850;42.428;25.618;2023-11-19T12:25:08;9.96;43.91
74416;SHT31;62850;42.428;25.618;2023-11-19T12:27:35;9.95;43.81
74416;SHT31;62850;42.428;25.618;2023-11-19T12:30:01;9.86;44.12
74416;SHT31;62850;42.428;25.618;2023-11-19T12:32:37;9.89;44.25
74416;SHT31;62850;42.428;25.618;2023-11-19T12:35:04;9.95;43.95
74416;SHT31;62850;42.428;25.618;2023-11-19T12:37:29;10.06;43.85
74416;SHT31;62850;42.428;25.618;2023-11-19T12:39:57;10.03;43.82
74416;SHT31;62850;42.428;25.618;2023-11-19T12:42:35;10.06;44.01
74416;SHT31;62850;42.428;25.618;2023-11-19T12:45:01;10.09;43.77
74416;SHT31;62850;42.428;25.618;2023-11-19T12:47:26;10.20;43.86
74416;SHT31;62850;42.428;25.618;2023-11-19T12:49:56;10.23;43.91
74416;SHT31;62850;42.428;25.618;2023-11-19T12:52:22;10.27;43.45
74416;SHT31;62850;42.428;25.618;2023-11-19T12:54:48;10.26;43.60
74416;SHT31;62850;42.428;25.618;2023-11-19T12:57:15;10.20;43.80
74416;SHT31;62850;42.428;25.618;2023-11-19T12:59:40;10.27;43.79
74416;SHT31;62850;42.428;25.618;2023-11-19T13:02:06;10.30;44.14
74416;SHT31;62850;42.428;25.618;2023-11-19T13:04:32;10.34;43.80
74416;SHT31;62850;42.428;25.618;2023-11-19T13:06:58;10.30;43.75
74416;SHT31;62850;42.428;25.618;2023-11-19T13:09:24;10.27;43.82
74416;SHT31;62850;42.428;25.618;2023-11-19T13:11:50;10.21;44.10
74416;SHT31;62850;42.428;25.618;2023-11-19T13:14:16;10.20;44.44
74416;SHT31;62850;42.428;25.618;2023-11-19T13:16:42;10.21;44.34
74416;SHT31;62850;42.428;25.618;2023-11-19T13:19:08;10.20;44.55
74416;SHT31;62850;42.428;25.618;2023-11-19T13:21:36;10.23;44.43
74416;SHT31;62850;42.428;25.618;2023-11-19T13:24:03;10.27;44.51
74416;SHT31;62850;42.428;25.618;2023-11-19T13:26:28;10.34;44.58
74416;SHT31;62850;42.428;25.618;2023-11-19T13:28:54;10.33;44.46
74416;SHT31;62850;42.428;25.618;2023-11-19T13:31:19;10.34;44.47
74416;SHT31;62850;42.428;25.618;2023-11-19T13:33:45;10.34;44.70
74416;SHT31;62850;42.428;25.618;2023-11-19T13:36:11;10.27;44.90
74416;SHT31;62850;42.428;25.618;2023-11-19T13:38:36;10.27;44.56
74416;SHT31;62850;42.428;25.618;2023-11-19T13:41:03;10.24;44.63
74416;SHT31;62850;42.428;25.618;2023-11-19T13:43:29;10.29;44.65
74416;SHT31;62850;42.428;25.618;2023-11-19T13:45:56;10.26;44.91
74416;SHT31;62850;42.428;25.618;2023-11-19T13:48:23;10.29;44.66
74416;SHT31;62850;42.428;25.618;2023-11-19T13:50:49;10.27;44.72
74416;SHT31;62850;42.428;25.618;2023-11-19T13:53:14;10.29;44.94
74416;SHT31;62850;42.428;25.618;2023-11-19T13:55:40;10.33;44.88
74416;SHT31;62850;42.428;25.618;2023-11-19T13:58:05;10.34;45.31
74416;SHT31;62850;42.428;25.618;2023-11-19T14:00:30;10.43;45.62
74416;SHT31;62850;42.428;25.618;2023-11-19T14:02:56;10.36;46.00
74416;SHT31;62850;42.428;25.618;2023-11-19T14:05:21;10.41;45.86
74416;SHT31;62850;42.428;25.618;2023-11-19T14:07:48;10.46;45.84
74416;SHT31;62850;42.428;25.618;2023-11-19T14:10:14;10.50;45.88
74416;SHT31;62850;42.428;25.618;2023-11-19T14:12:40;10.53;45.92
74416;SHT31;62850;42.428;25.618;2023-11-19T14:15:07;10.56;46.00
74416;SHT31;62850;42.428;25.618;2023-11-19T14:17:33;10.54;46.53
74416;SHT31;62850;42.428;25.618;2023-11-19T14:19:59;10.51;46.85
74416;SHT31;62850;42.428;25.618;2023-11-19T14:22:25;10.43;47.31
74416;SHT31;62850;42.428;25.618;2023-11-19T14:24:50;10.38;47.70
74416;SHT31;62850;42.428;25.618;2023-11-19T14:27:16;10.38;47.77
74416;SHT31;62850;42.428;25.618;2023-11-19T14:29:45;10.33;47.93
74416;SHT31;62850;42.428;25.618;2023-11-19T14:32:11;10.32;47.79
74416;SHT31;62850;42.428;25.618;2023-11-19T14:34:36;10.09;49.03
74416;SHT31;62850;42.428;25.618;2023-11-19T14:37:02;10.05;50.79
74416;SHT31;62850;42.428;25.618;2023-11-19T14:39:27;10.02;48.86
74416;SHT31;62850;42.428;25.618;2023-11-19T14:41:56;9.92;49.18
74416;SHT31;62850;42.428;25.618;2023-11-19T14:44:26;9.79;49.30
74416;SHT31;62850;42.428;25.618;2023-11-19T14:46:54;9.83;49.53
74416;SHT31;62850;42.428;25.618;2023-11-19T14:49:19;9.77;49.81
74416;SHT31;62850;42.428;25.618;2023-11-19T14:51:45;9.67;49.75
74416;SHT31;62850;42.428;25.618;2023-11-19T14:54:10;9.65;50.00
74416;SHT31;62850;42.428;25.618;2023-11-19T14:56:38;9.54;50.30
74416;SHT31;62850;42.428;25.618;2023-11-19T14:59:04;9.51;50.31
74416;SHT31;62850;42.428;25.618;2023-11-19T15:01:29;9.54;50.43
74416;SHT31;62850;42.428;25.618;2023-11-19T15:03:56;9.57;50.88
74416;SHT31;62850;42.428;25.618;2023-11-19T15:06:25;9.59;50.87
74416;SHT31;62850;42.428;25.618;2023-11-19T15:08:52;9.63;50.83
74416;SHT31;62850;42.428;25.618;2023-11-19T15:11:17;9.61;51.97
74416;SHT31;62850;42.428;25.618;2023-11-19T15:13:46;9.48;50.88
74416;SHT31;62850;42.428;25.618;2023-11-19T15:16:12;9.38;51.58
74416;SHT31;62850;42.428;25.618;2023-11-19T15:18:39;9.23;52.11
74416;SHT31;62850;42.428;25.618;2023-11-19T15:21:04;9.17;52.48
74416;SHT31;62850;42.428;25.618;2023-11-19T15:23:30;9.06;52.16
74416;SHT31;62850;42.428;25.618;2023-11-19T15:25:55;8.96;52.25
74416;SHT31;62850;42.428;25.618;2023-11-19T15:28:21;8.99;51.87
74416;SHT31;62850;42.428;25.618;2023-11-19T15:30:47;8.94;51.65
74416;SHT31;62850;42.428;25.618;2023-11-19T15:33:15;8.93;52.73
74416;SHT31;62850;42.428;25.618;2023-11-19T15:35:40;8.87;53.86
74416;SHT31;62850;42.428;25.618;2023-11-19T15:38:06;8.90;52.99
74416;SHT31;62850;42.428;25.618;2023-11-19T15:40:35;8.87;55.71
74416;SHT31;62850;42.428;25.618;2023-11-19T15:43:01;8.79;52.81
74416;SHT31;62850;42.428;25.618;2023-11-19T15:45:27;8.66;52.64
74416;SHT31;62850;42.428;25.618;2023-11-19T15:47:52;8.65;53.77
74416;SHT31;62850;42.428;25.618;2023-11-19T15:50:18;8.65;54.57
74416;SHT31;62850;42.428;25.618;2023-11-19T15:52:43;8.60;53.46